Time;durP1;ratioP1;P1;durP2;ratioP2;P2;SDS_P1;SDS_P2;PMS_P1;PMS_P2;Temp;Humidity;BMP_temperature;BMP_pressure;BME280_temperature;BME280_humidity;BME280_pressure;Samples;Min_cycle;Max_cycle;Signal;HPM_P1;HPM_P2
2021/03/06 07:01:31;;;;;;;10.88;8.85;;;;;;;7.73;65.78;94976.88;827326;71;33288;-77
2021/03/06 07:16:18;;;;;;;9.65;7.10;;;;;;;7.44;64.44;94986.44;827490;71;33175;-76
2021/03/06 07:31:11;;;;;;;6.65;5.85;;;;;;;7.32;64.23;95003.61;827920;71;30980;-78
2021/03/06 07:46:16;;;;;;;6.20;5.10;;;;;;;7.04;65.09;95042.59;827330;71;32683;-75
2021/03/06 08:01:31;;;;;;;5.80;5.03;;;;;;;6.90;67.32;95045.37;827649;71;32714;-77
2021/03/06 08:02:37;;;;;;;5.50;4.97;;;;;;;6.85;67.80;95045.32;808653;73;26265;-78
2021/03/06 08:03:41;;;;;;;4.92;4.53;;;;;;;6.93;68.21;95056.06;808168;73;26320;-77
2021/03/06 08:04:45;;;;;;;7.42;4.92;;;;;;;7.02;68.20;95059.80;808521;73;26339;-78
2021/03/06 08:05:50;;;;;;;5.95;4.80;;;;;;;6.89;68.07;95026.30;808588;73;26799;-75
2021/03/06 08:07:13;;;;;;;5.95;5.35;;;;;;;7.26;67.91;95058.12;808571;73;26214;-80
2021/03/06 08:08:37;;;;;;;7.95;5.62;;;;;;;7.37;68.07;95067.58;808608;73;26266;-76
2021/03/06 08:09:59;;;;;;;6.70;5.35;;;;;;;7.49;67.52;95059.55;808485;73;26370;-78
2021/03/06 08:11:23;;;;;;;7.75;5.95;;;;;;;7.60;67.16;95059.88;808513;73;26365;-75
2021/03/06 08:12:34;;;;;;;6.87;6.15;;;;;;;7.71;66.96;95070.37;808668;73;26249;-78
2021/03/06 08:13:47;;;;;;;5.75;5.15;;;;;;;7.80;66.53;95064.38;808599;73;26271;-80
2021/03/06 08:14:51;;;;;;;6.75;5.97;;;;;;;7.86;66.07;95067.02;808592;73;26653;-79
2021/03/06 08:15:56;;;;;;;6.17;5.58;;;;;;;7.92;65.72;95072.00;804566;73;27955;-76
2021/03/06 08:31:41;;;;;;;5.10;4.55;;;;;;;7.69;65.70;95090.73;825229;71;32749;-77
2021/03/06 08:46:15;;;;;;;4.80;4.30;;;;;;;7.35;65.38;95109.33;827533;71;32800;-76
2021/03/06 09:01:51;;;;;;;6.65;5.87;;;;;;;7.01;65.18;95135.70;828867;71;32830;-79
2021/03/06 09:16:10;;;;;;;4.05;3.75;;;;;;;6.36;63.87;95146.56;829318;71;30617;-78
2021/03/06 09:31:28;;;;;;;5.85;4.58;;;;;;;6.00;66.01;95150.86;827756;71;32684;-79
2021/03/06 09:46:20;;;;;;;5.65;4.40;;;;;;;5.95;66.51;95161.20;827470;71;32672;-78
2021/03/06 10:01:30;;;;;;;4.80;4.30;;;;;;;6.04;66.00;95166.77;834957;71;33295;-78
2021/03/06 10:16:10;;;;;;;5.50;4.97;;;;;;;5.87;65.27;95185.03;828102;71;30876;-77
2021/03/06 10:31:27;;;;;;;7.90;6.37;;;;;;;5.99;65.71;95197.45;825416;71;32724;-74
2021/03/06 10:46:34;;;;;;;7.30;6.05;;;;;;;6.20;65.12;95191.20;828748;71;32700;-79
2021/03/06 11:01:15;;;;;;;8.30;6.15;;;;;;;6.69;61.60;95183.42;828055;71;32046;-76
2021/03/06 11:16:15;;;;;;;6.97;6.20;;;;;;;7.04;59.37;95165.22;833549;71;32878;-78
2021/03/06 11:31:09;;;;;;;7.42;6.62;;;;;;;7.50;57.28;95162.97;827777;71;30722;-76
2021/03/06 11:46:19;;;;;;;7.85;6.60;;;;;;;8.37;54.10;95141.17;827248;71;32824;-77
2021/03/06 12:01:17;;;;;;;8.15;6.72;;;;;;;9.38;53.67;95134.22;831853;70;32678;-79
2021/03/06 12:16:11;;;;;;;8.05;6.75;;;;;;;9.63;48.25;95122.41;827728;71;31442;-78
2021/03/06 12:31:17;;;;;;;8.43;6.75;;;;;;;9.50;44.83;95116.39;825920;71;30287;-77
2021/03/06 12:46:15;;;;;;;18.40;14.78;;;;;;;11.01;47.91;95100.52;827354;71;32669;-76
2021/03/06 13:01:18;;;;;;;7.60;6.15;;;;;;;10.02;42.41;95094.77;834761;70;32824;-81
2021/03/06 13:16:10;;;;;;;7.35;5.95;;;;;;;9.74;41.55;95107.97;834089;71;30416;-78
2021/03/06 13:31:08;;;;;;;7.50;6.22;;;;;;;9.49;40.01;95124.01;828626;71;29775;-79
2021/03/06 13:46:17;;;;;;;7.60;6.20;;;;;;;9.13;39.81;95137.12;834129;71;32826;-77
2021/03/06 14:01:14;;;;;;;8.30;7.03;;;;;;;9.00;39.14;95146.28;827736;71;32693;-79
2021/03/06 14:16:23;;;;;;;9.20;7.50;;;;;;;8.93;38.93;95152.28;827506;71;33274;-80
2021/03/06 14:31:30;;;;;;;7.33;6.53;;;;;;;8.58;38.59;95160.87;833922;71;32723;-81
2021/03/06 14:46:09;;;;;;;9.95;6.80;;;;;;;8.23;38.76;95169.62;788046;74;30336;-77
2021/03/06 15:01:29;;;;;;;8.15;6.90;;;;;;;8.31;39.41;95168.84;821813;71;30379;-77
2021/03/06 15:16:15;;;;;;;7.70;6.50;;;;;;;7.60;39.32;95173.48;826284;71;32813;-79
2021/03/06 15:31:09;;;;;;;10.10;8.00;;;;;;;7.37;40.71;95192.09;821424;71;30414;-76
2021/03/06 15:46:15;;;;;;;7.95;6.75;;;;;;;7.11;41.32;95198.41;820314;71;31796;-76
2021/03/06 16:01:21;;;;;;;9.38;6.92;;;;;;;6.77;41.64;95218.69;818971;71;31724;-80
2021/03/06 16:16:17;;;;;;;10.90;7.33;;;;;;;6.64;41.35;95247.24;823530;70;31858;-77
2021/03/06 16:46:42;;;;;;;8.40;7.08;;;;;;;5.73;42.34;95287.94;828999;71;31858;-85
